sensor_id;sensor_type;location;lat;lon;timestamp;temperature;humidity
54178;DHT22;40085;53.004;6.770;2023-10-09T00:00:57;13.80;66.70
54178;DHT22;40085;53.004;6.770;2023-10-09T00:03:41;13.80;69.50
54178;DHT22;40085;53.004;6.770;2023-10-09T00:06:09;13.70;75.00
54178;DHT22;40085;53.004;6.770;2023-10-09T00:08:42;13.70;82.10
54178;DHT22;40085;53.004;6.770;2023-10-09T00:11:13;13.70;83.20
54178;DHT22;40085;53.004;6.770;2023-10-09T00:13:43;13.70;86.30
54178;DHT22;40085;53.004;6.770;2023-10-09T00:16:18;13.70;87.90
54178;DHT22;40085;53.004;6.770;2023-10-09T00:18:59;13.70;88.80
54178;DHT22;40085;53.004;6.770;2023-10-09T00:21:39;13.70;88.00
54178;DHT22;40085;53.004;6.770;2023-10-09T00:24:05;13.70;87.50
54178;DHT22;40085;53.004;6.770;2023-10-09T00:26:39;13.70;86.70
54178;DHT22;40085;53.004;6.770;2023-10-09T00:29:09;13.70;86.00
54178;DHT22;40085;53.004;6.770;2023-10-09T00:31:41;13.70;87.30
54178;DHT22;40085;53.004;6.770;2023-10-09T00:34:16;13.70;88.00
54178;DHT22;40085;53.004;6.770;2023-10-09T00:36:45;13.70;90.40
54178;DHT22;40085;53.004;6.770;2023-10-09T00:39:18;13.70;90.40
54178;DHT22;40085;53.004;6.770;2023-10-09T00:41:59;13.90;90.80
54178;DHT22;40085;53.004;6.770;2023-10-09T00:44:26;13.70;90.50
54178;DHT22;40085;53.004;6.770;2023-10-09T00:47:06;13.60;90.80
54178;DHT22;40085;53.004;6.770;2023-10-09T00:50:05;13.60;91.50
54178;DHT22;40085;53.004;6.770;2023-10-09T00:52:42;13.60;94.70
54178;DHT22;40085;53.004;6.770;2023-10-09T00:55:14;13.70;93.40
54178;DHT22;40085;53.004;6.770;2023-10-09T00:57:47;13.60;93.20
54178;DHT22;40085;53.004;6.770;2023-10-09T01:00:25;13.60;93.10
54178;DHT22;40085;53.004;6.770;2023-10-09T01:03:06;13.70;94.60
54178;DHT22;40085;53.004;6.770;2023-10-09T01:05:59;13.70;95.30
54178;DHT22;40085;53.004;6.770;2023-10-09T01:08:41;13.70;95.70
54178;DHT22;40085;53.004;6.770;2023-10-09T01:11:10;13.70;97.50
54178;DHT22;40085;53.004;6.770;2023-10-09T01:13:42;13.70;97.20
54178;DHT22;40085;53.004;6.770;2023-10-09T01:16:14;13.70;96.80
54178;DHT22;40085;53.004;6.770;2023-10-09T01:18:47;13.70;97.00
54178;DHT22;40085;53.004;6.770;2023-10-09T01:21:19;14.70;98.90
54178;DHT22;40085;53.004;6.770;2023-10-09T01:23:50;13.70;98.80
54178;DHT22;40085;53.004;6.770;2023-10-09T01:26:36;13.70;99.70
54178;DHT22;40085;53.004;6.770;2023-10-09T01:29:08;13.70;99.90
54178;DHT22;40085;53.004;6.770;2023-10-09T01:31:50;13.70;99.90
54178;DHT22;40085;53.004;6.770;2023-10-09T01:34:36;14.50;99.90
54178;DHT22;40085;53.004;6.770;2023-10-09T01:37:10;13.70;99.90
54178;DHT22;40085;53.004;6.770;2023-10-09T01:39:55;13.70;99.90
54178;DHT22;40085;53.004;6.770;2023-10-09T01:42:23;13.70;99.90
54178;DHT22;40085;53.004;6.770;2023-10-09T01:44:55;13.70;99.90
54178;DHT22;40085;53.004;6.770;2023-10-09T01:47:23;13.70;99.90
54178;DHT22;40085;53.004;6.770;2023-10-09T01:49:51;13.70;99.90
54178;DHT22;40085;53.004;6.770;2023-10-09T01:52:19;13.70;99.90
54178;DHT22;40085;53.004;6.770;2023-10-09T01:54:46;13.70;99.90
54178;DHT22;40085;53.004;6.770;2023-10-09T01:57:17;13.70;99.90
54178;DHT22;40085;53.004;6.770;2023-10-09T01:59:48;13.70;99.90
54178;DHT22;40085;53.004;6.770;2023-10-09T02:02:16;13.70;99.90
54178;DHT22;40085;53.004;6.770;2023-10-09T02:05:04;13.80;99.90
54178;DHT22;40085;53.004;6.770;2023-10-09T02:07:39;13.80;99.90
54178;DHT22;40085;53.004;6.770;2023-10-09T02:10:10;13.80;99.90
54178;DHT22;40085;53.004;6.770;2023-10-09T02:12:59;13.70;99.90
54178;DHT22;40085;53.004;6.770;2023-10-09T02:15:26;13.80;99.90
54178;DHT22;40085;53.004;6.770;2023-10-09T02:21:08;13.80;99.90
54178;DHT22;40085;53.004;6.770;2023-10-09T02:23:37;13.80;99.90
54178;DHT22;40085;53.004;6.770;2023-10-09T02:26:10;13.80;99.90
54178;DHT22;40085;53.004;6.770;2023-10-09T02:28:54;13.80;99.90
54178;DHT22;40085;53.004;6.770;2023-10-09T02:31:35;13.80;99.90
54178;DHT22;40085;53.004;6.770;2023-10-09T02:34:01;13.80;99.90
54178;DHT22;40085;53.004;6.770;2023-10-09T02:36:30;13.80;99.90
54178;DHT22;40085;53.004;6.770;2023-10-09T02:38:56;13.90;99.90
54178;DHT22;40085;53.004;6.770;2023-10-09T02:41:22;13.90;99.90
54178;DHT22;40085;53.004;6.770;2023-10-09T02:43:54;13.90;99.90
54178;DHT22;40085;53.004;6.770;2023-10-09T02:46:24;13.90;99.90
54178;DHT22;40085;53.004;6.770;2023-10-09T02:48:56;13.90;99.90
54178;DHT22;40085;53.004;6.770;2023-10-09T02:51:26;14.00;99.90
54178;DHT22;40085;53.004;6.770;2023-10-09T02:56:18;13.80;99.90
54178;DHT22;40085;53.004;6.770;2023-10-09T02:58:55;13.80;99.90
54178;DHT22;40085;53.004;6.770;2023-10-09T03:01:31;13.90;99.90
54178;DHT22;40085;53.004;6.770;2023-10-09T03:03:57;14.70;99.90
54178;DHT22;40085;53.004;6.770;2023-10-09T03:06:24;13.90;99.90
54178;DHT22;40085;53.004;6.770;2023-10-09T03:08:59;13.90;99.90
54178;DHT22;40085;53.004;6.770;2023-10-09T03:11:25;13.90;99.90
54178;DHT22;40085;53.004;6.770;2023-10-09T03:13:57;14.00;99.90
54178;DHT22;40085;53.004;6.770;2023-10-09T03:16:23;14.00;99.90
54178;DHT22;40085;53.004;6.770;2023-10-09T03:18:51;13.70;99.90
54178;DHT22;40085;53.004;6.770;2023-10-09T03:21:18;14.00;99.90
54178;DHT22;40085;53.004;6.770;2023-10-09T03:23:48;14.10;99.90
54178;DHT22;40085;53.004;6.770;2023-10-09T03:26:18;14.10;99.90
54178;DHT22;40085;53.004;6.770;2023-10-09T03:28:48;14.10;99.90
54178;DHT22;40085;53.004;6.770;2023-10-09T03:31:14;14.20;99.90
54178;DHT22;40085;53.004;6.770;2023-10-09T03:33:40;14.20;99.90
54178;DHT22;40085;53.004;6.770;2023-10-09T03:36:07;14.20;99.90
54178;DHT22;40085;53.004;6.770;2023-10-09T03:38:38;14.30;99.90
54178;DHT22;40085;53.004;6.770;2023-10-09T03:41:07;14.80;99.90
54178;DHT22;40085;53.004;6.770;2023-10-09T03:43:35;14.30;99.90
54178;DHT22;40085;53.004;6.770;2023-10-09T03:46:10;14.30;99.90
54178;DHT22;40085;53.004;6.770;2023-10-09T03:48:48;14.50;99.90
54178;DHT22;40085;53.004;6.770;2023-10-09T03:51:14;14.30;99.90
54178;DHT22;40085;53.004;6.770;2023-10-09T03:53:52;14.40;99.90
54178;DHT22;40085;53.004;6.770;2023-10-09T03:56:20;14.50;99.90
54178;DHT22;40085;53.004;6.770;2023-10-09T03:58:50;14.50;99.90
54178;DHT22;40085;53.004;6.770;2023-10-09T04:01:20;14.50;99.90
54178;DHT22;40085;53.004;6.770;2023-10-09T04:04:04;14.60;99.90
54178;DHT22;40085;53.004;6.770;2023-10-09T04:06:33;14.70;99.90
54178;DHT22;40085;53.004;6.770;2023-10-09T04:09:08;14.70;99.90
54178;DHT22;40085;53.004;6.770;2023-10-09T04:11:46;14.80;99.90
54178;DHT22;40085;53.004;6.770;2023-10-09T04:14:15;14.70;99.90
54178;DHT22;40085;53.004;6.770;2023-10-09T04:16:57;15.20;99.90
54178;DHT22;40085;53.004;6.770;2023-10-09T04:19:49;14.80;99.90
54178;DHT22;40085;53.004;6.770;2023-10-09T04:22:39;14.70;99.90
54178;DHT22;40085;53.004;6.770;2023-10-09T04:25:08;14.70;99.90
54178;DHT22;40085;53.004;6.770;2023-10-09T04:27:40;14.70;99.90
54178;DHT22;40085;53.004;6.770;2023-10-09T04:30:07;15.20;99.90
54178;DHT22;40085;53.004;6.770;2023-10-09T04:32:33;14.80;99.90
54178;DHT22;40085;53.004;6.770;2023-10-09T04:35:00;14.80;99.90
54178;DHT22;40085;53.004;6.770;2023-10-09T04:37:58;14.80;99.90
54178;DHT22;40085;53.004;6.770;2023-10-09T04:40:33;14.90;99.90
54178;DHT22;40085;53.004;6.770;2023-10-09T04:43:15;14.80;99.90
54178;DHT22;40085;53.004;6.770;2023-10-09T04:45:48;15.00;99.90
54178;DHT22;40085;53.004;6.770;2023-10-09T04:48:33;14.80;99.90
54178;DHT22;40085;53.004;6.770;2023-10-09T04:51:03;14.80;99.90
54178;DHT22;40085;53.004;6.770;2023-10-09T04:53:48;14.70;99.90
54178;DHT22;40085;53.004;6.770;2023-10-09T04:56:25;14.70;99.90
54178;DHT22;40085;53.004;6.770;2023-10-09T04:58:57;14.70;99.90
54178;DHT22;40085;53.004;6.770;2023-10-09T05:01:29;14.80;99.90
54178;DHT22;40085;53.004;6.770;2023-10-09T05:04:03;15.70;99.90
54178;DHT22;40085;53.004;6.770;2023-10-09T05:06:29;14.80;99.90
54178;DHT22;40085;53.004;6.770;2023-10-09T05:09:08;14.80;99.90
54178;DHT22;40085;53.004;6.770;2023-10-09T05:11:34;14.80;99.90
54178;DHT22;40085;53.004;6.770;2023-10-09T05:14:22;15.40;99.90
54178;DHT22;40085;53.004;6.770;2023-10-09T05:17:04;14.80;99.90
54178;DHT22;40085;53.004;6.770;2023-10-09T05:19:35;14.80;99.90
54178;DHT22;40085;53.004;6.770;2023-10-09T05:22:19;14.80;99.90
54178;DHT22;40085;53.004;6.770;2023-10-09T05:25:03;14.90;99.90
54178;DHT22;40085;53.004;6.770;2023-10-09T05:27:41;14.90;99.90
54178;DHT22;40085;53.004;6.770;2023-10-09T05:30:16;14.80;99.90
54178;DHT22;40085;53.004;6.770;2023-10-09T05:32:52;14.90;99.90
54178;DHT22;40085;53.004;6.770;2023-10-09T05:35:23;14.90;99.90
54178;DHT22;40085;53.004;6.770;2023-10-09T05:38:24;14.90;99.90
54178;DHT22;40085;53.004;6.770;2023-10-09T05:40:51;15.00;99.90
54178;DHT22;40085;53.004;6.770;2023-10-09T05:43:20;15.00;99.90
54178;DHT22;40085;53.004;6.770;2023-10-09T05:46:04;15.00;99.90
54178;DHT22;40085;53.004;6.770;2023-10-09T05:48:34;15.00;99.90
54178;DHT22;40085;53.004;6.770;2023-10-09T05:51:03;15.10;99.90
54178;DHT22;40085;53.004;6.770;2023-10-09T05:53:35;15.10;99.90
54178;DHT22;40085;53.004;6.770;2023-10-09T05:56:20;15.60;99.90
54178;DHT22;40085;53.004;6.770;2023-10-09T05:59:18;15.10;99.90
54178;DHT22;40085;53.004;6.770;2023-10-09T06:02:10;15.20;99.90
54178;DHT22;40085;53.004;6.770;2023-10-09T06:04:55;15.20;99.90
54178;DHT22;40085;53.004;6.770;2023-10-09T06:07:22;15.20;99.90
54178;DHT22;40085;53.004;6.770;2023-10-09T06:10:11;15.20;99.90
54178;DHT22;40085;53.004;6.770;2023-10-09T06:12:56;15.30;99.90
54178;DHT22;40085;53.004;6.770;2023-10-09T06:15:29;15.30;99.90
54178;DHT22;40085;53.004;6.770;2023-10-09T06:18:09;15.90;99.90
54178;DHT22;40085;53.004;6.770;2023-10-09T06:21:04;15.30;99.90
54178;DHT22;40085;53.004;6.770;2023-10-09T06:23:34;15.30;99.90
54178;DHT22;40085;53.004;6.770;2023-10-09T06:26:18;15.40;99.90
54178;DHT22;40085;53.004;6.770;2023-10-09T06:28:50;15.40;99.90
54178;DHT22;40085;53.004;6.770;2023-10-09T06:31:36;15.40;99.90
54178;DHT22;40085;53.004;6.770;2023-10-09T06:34:21;15.40;99.90
54178;DHT22;40085;53.004;6.770;2023-10-09T06:36:58;15.40;99.90
54178;DHT22;40085;53.004;6.770;2023-10-09T06:39:29;15.50;99.90
54178;DHT22;40085;53.004;6.770;2023-10-09T06:42:13;15.50;99.90
54178;DHT22;40085;53.004;6.770;2023-10-09T06:45:01;15.50;99.90
54178;DHT22;40085;53.004;6.770;2023-10-09T06:47:30;15.60;99.90
54178;DHT22;40085;53.004;6.770;2023-10-09T06:50:02;15.60;99.90
54178;DHT22;40085;53.004;6.770;2023-10-09T06:52:46;15.60;99.90
54178;DHT22;40085;53.004;6.770;2023-10-09T06:55:40;15.60;99.90
54178;DHT22;40085;53.004;6.770;2023-10-09T06:58:21;15.60;99.90
54178;DHT22;40085;53.004;6.770;2023-10-09T07:00:54;15.70;99.90
54178;DHT22;40085;53.004;6.770;2023-10-09T07:03:38;15.70;99.90
54178;DHT22;40085;53.004;6.770;2023-10-09T07:06:18;15.70;99.90
54178;DHT22;40085;53.004;6.770;2023-10-09T07:08:53;15.70;99.90
54178;DHT22;40085;53.004;6.770;2023-10-09T07:11:34;15.70;99.90
54178;DHT22;40085;53.004;6.770;2023-10-09T07:16:58;15.70;99.90
54178;DHT22;40085;53.004;6.770;2023-10-09T07:19:29;15.80;99.90
54178;DHT22;40085;53.004;6.770;2023-10-09T07:22:24;15.60;99.90
54178;DHT22;40085;53.004;6.770;2023-10-09T07:24:56;15.70;99.90
54178;DHT22;40085;53.004;6.770;2023-10-09T07:27:31;15.70;99.90
54178;DHT22;40085;53.004;6.770;2023-10-09T07:30:19;15.90;99.90
54178;DHT22;40085;53.004;6.770;2023-10-09T07:33:07;15.70;99.90
54178;DHT22;40085;53.004;6.770;2023-10-09T07:35:37;15.70;99.90
54178;DHT22;40085;53.004;6.770;2023-10-09T07:38:15;15.80;99.90
54178;DHT22;40085;53.004;6.770;2023-10-09T07:40:45;15.70;99.90
54178;DHT22;40085;53.004;6.770;2023-10-09T07:43:32;15.60;99.90
54178;DHT22;40085;53.004;6.770;2023-10-09T07:46:17;15.70;99.90
54178;DHT22;40085;53.004;6.770;2023-10-09T07:49:05;15.70;99.90
54178;DHT22;40085;53.004;6.770;2023-10-09T07:51:46;15.70;99.90
54178;DHT22;40085;53.004;6.770;2023-10-09T07:54:13;15.70;99.90
54178;DHT22;40085;53.004;6.770;2023-10-09T07:56:57;15.70;99.90
54178;DHT22;40085;53.004;6.770;2023-10-09T07:59:34;15.80;99.90
54178;DHT22;40085;53.004;6.770;2023-10-09T08:02:07;15.70;99.90
54178;DHT22;40085;53.004;6.770;2023-10-09T08:04:39;15.80;99.90
54178;DHT22;40085;53.004;6.770;2023-10-09T08:07:14;15.80;99.90
54178;DHT22;40085;53.004;6.770;2023-10-09T08:09:51;15.80;99.90
54178;DHT22;40085;53.004;6.770;2023-10-09T08:12:36;15.80;99.90
54178;DHT22;40085;53.004;6.770;2023-10-09T08:15:24;15.80;99.90
54178;DHT22;40085;53.004;6.770;2023-10-09T08:18:09;15.90;99.90
54178;DHT22;40085;53.004;6.770;2023-10-09T08:20:39;15.90;99.90
54178;DHT22;40085;53.004;6.770;2023-10-09T08:23:24;15.90;99.90
54178;DHT22;40085;53.004;6.770;2023-10-09T08:26:04;16.00;99.90
54178;DHT22;40085;53.004;6.770;2023-10-09T08:28:38;15.90;99.90
54178;DHT22;40085;53.004;6.770;2023-10-09T08:31:11;15.90;99.90
54178;DHT22;40085;53.004;6.770;2023-10-09T08:33:56;15.90;99.90
54178;DHT22;40085;53.004;6.770;2023-10-09T08:36:28;15.90;99.90
54178;DHT22;40085;53.004;6.770;2023-10-09T08:38:57;16.00;99.90
54178;DHT22;40085;53.004;6.770;2023-10-09T08:41:39;16.00;99.90
54178;DHT22;40085;53.004;6.770;2023-10-09T08:44:07;16.00;99.90
54178;DHT22;40085;53.004;6.770;2023-10-09T08:46:32;16.00;99.90
54178;DHT22;40085;53.004;6.770;2023-10-09T08:48:59;16.00;99.90
54178;DHT22;40085;53.004;6.770;2023-10-09T08:51:26;16.00;99.90
54178;DHT22;40085;53.004;6.770;2023-10-09T08:53:53;16.40;99.90
54178;DHT22;40085;53.004;6.770;2023-10-09T08:56:20;16.00;99.90
54178;DHT22;40085;53.004;6.770;2023-10-09T08:58:55;16.00;99.90
54178;DHT22;40085;53.004;6.770;2023-10-09T09:01:21;16.00;99.90
54178;DHT22;40085;53.004;6.770;2023-10-09T09:03:48;16.00;99.90
54178;DHT22;40085;53.004;6.770;2023-10-09T09:06:17;16.00;99.90
54178;DHT22;40085;53.004;6.770;2023-10-09T09:08:45;15.90;99.90
54178;DHT22;40085;53.004;6.770;2023-10-09T09:11:16;16.70;99.90
54178;DHT22;40085;53.004;6.770;2023-10-09T09:16:25;15.90;99.90
54178;DHT22;40085;53.004;6.770;2023-10-09T09:19:02;15.80;99.90
54178;DHT22;40085;53.004;6.770;2023-10-09T09:24:06;15.90;99.90
54178;DHT22;40085;53.004;6.770;2023-10-09T09:26:43;16.00;99.90
54178;DHT22;40085;53.004;6.770;2023-10-09T09:29:15;16.00;99.90
54178;DHT22;40085;53.004;6.770;2023-10-09T09:31:56;16.00;99.90
54178;DHT22;40085;53.004;6.770;2023-10-09T09:34:51;16.00;99.90
54178;DHT22;40085;53.004;6.770;2023-10-09T09:37:25;16.10;99.90
54178;DHT22;40085;53.004;6.770;2023-10-09T09:39:55;16.00;99.90
54178;DHT22;40085;53.004;6.770;2023-10-09T09:42:22;16.10;99.90
54178;DHT22;40085;53.004;6.770;2023-10-09T09:44:52;16.10;99.90
54178;DHT22;40085;53.004;6.770;2023-10-09T09:47:18;16.10;99.90
54178;DHT22;40085;53.004;6.770;2023-10-09T09:49:54;16.10;99.90
54178;DHT22;40085;53.004;6.770;2023-10-09T09:52:29;16.10;99.90
54178;DHT22;40085;53.004;6.770;2023-10-09T09:54:55;16.00;99.90
54178;DHT22;40085;53.004;6.770;2023-10-09T09:57:23;16.20;99.90
54178;DHT22;40085;53.004;6.770;2023-10-09T09:59:52;16.20;99.90
54178;DHT22;40085;53.004;6.770;2023-10-09T10:02:29;16.20;99.90
54178;DHT22;40085;53.004;6.770;2023-10-09T10:04:59;16.30;99.90
54178;DHT22;40085;53.004;6.770;2023-10-09T10:07:31;16.30;99.90
54178;DHT22;40085;53.004;6.770;2023-10-09T10:10:40;16.40;99.90
54178;DHT22;40085;53.004;6.770;2023-10-09T10:16:10;16.40;99.90
54178;DHT22;40085;53.004;6.770;2023-10-09T10:21:29;16.80;99.90
54178;DHT22;40085;53.004;6.770;2023-10-09T10:24:04;16.40;99.90
54178;DHT22;40085;53.004;6.770;2023-10-09T10:26:36;16.50;99.90
54178;DHT22;40085;53.004;6.770;2023-10-09T10:29:16;16.50;99.90
54178;DHT22;40085;53.004;6.770;2023-10-09T10:31:58;16.30;99.90
54178;DHT22;40085;53.004;6.770;2023-10-09T10:34:27;16.60;99.90
54178;DHT22;40085;53.004;6.770;2023-10-09T10:37:43;16.80;99.90
54178;DHT22;40085;53.004;6.770;2023-10-09T10:43:15;16.60;99.90
54178;DHT22;40085;53.004;6.770;2023-10-09T10:46:04;16.60;99.90
54178;DHT22;40085;53.004;6.770;2023-10-09T10:48:35;16.60;99.90
54178;DHT22;40085;53.004;6.770;2023-10-09T10:51:04;16.60;99.90
54178;DHT22;40085;53.004;6.770;2023-10-09T10:53:30;16.60;99.90
54178;DHT22;40085;53.004;6.770;2023-10-09T10:56:13;16.60;99.90
54178;DHT22;40085;53.004;6.770;2023-10-09T10:58:43;16.70;99.90
54178;DHT22;40085;53.004;6.770;2023-10-09T11:01:35;16.50;99.90
54178;DHT22;40085;53.004;6.770;2023-10-09T11:04:21;16.70;99.90
54178;DHT22;40085;53.004;6.770;2023-10-09T11:07:05;16.50;99.90
54178;DHT22;40085;53.004;6.770;2023-10-09T11:15:08;16.50;99.90
54178;DHT22;40085;53.004;6.770;2023-10-09T11:18:01;16.50;99.90
54178;DHT22;40085;53.004;6.770;2023-10-09T11:20:59;16.50;99.90
54178;DHT22;40085;53.004;6.770;2023-10-09T11:23:28;16.50;99.90
54178;DHT22;40085;53.004;6.770;2023-10-09T11:26:01;16.50;99.90
54178;DHT22;40085;53.004;6.770;2023-10-09T11:28:45;16.80;99.90
54178;DHT22;40085;53.004;6.770;2023-10-09T11:31:23;16.50;99.90
54178;DHT22;40085;53.004;6.770;2023-10-09T11:33:52;16.50;99.90
54178;DHT22;40085;53.004;6.770;2023-10-09T11:36:20;16.50;99.90
54178;DHT22;40085;53.004;6.770;2023-10-09T11:38:58;16.50;99.90
54178;DHT22;40085;53.004;6.770;2023-10-09T11:41:43;16.90;99.90
54178;DHT22;40085;53.004;6.770;2023-10-09T11:44:10;16.60;99.90
54178;DHT22;40085;53.004;6.770;2023-10-09T11:47:00;16.50;99.90
54178;DHT22;40085;53.004;6.770;2023-10-09T11:49:57;16.60;99.90
54178;DHT22;40085;53.004;6.770;2023-10-09T11:52:25;16.50;99.90
54178;DHT22;40085;53.004;6.770;2023-10-09T11:55:01;16.50;99.90
54178;DHT22;40085;53.004;6.770;2023-10-09T11:57:28;16.60;99.90
54178;DHT22;40085;53.004;6.770;2023-10-09T11:59:59;16.60;99.90
54178;DHT22;40085;53.004;6.770;2023-10-09T12:02:26;16.50;99.90
54178;DHT22;40085;53.004;6.770;2023-10-09T12:04:51;16.50;99.90
54178;DHT22;40085;53.004;6.770;2023-10-09T12:07:21;16.60;99.90
54178;DHT22;40085;53.004;6.770;2023-10-09T12:09:47;17.30;99.90
54178;DHT22;40085;53.004;6.770;2023-10-09T12:12:14;16.80;99.90
54178;DHT22;40085;53.004;6.770;2023-10-09T12:14:39;17.00;99.90
54178;DHT22;40085;53.004;6.770;2023-10-09T12:17:08;18.00;99.90
54178;DHT22;40085;53.004;6.770;2023-10-09T12:19:38;17.20;99.90
54178;DHT22;40085;53.004;6.770;2023-10-09T12:22:07;17.20;99.90
54178;DHT22;40085;53.004;6.770;2023-10-09T12:24:41;17.20;99.90
54178;DHT22;40085;53.004;6.770;2023-10-09T12:27:09;17.30;99.90
54178;DHT22;40085;53.004;6.770;2023-10-09T12:29:37;17.20;99.90
54178;DHT22;40085;53.004;6.770;2023-10-09T12:32:02;17.20;99.90
54178;DHT22;40085;53.004;6.770;2023-10-09T12:34:29;17.20;99.90
54178;DHT22;40085;53.004;6.770;2023-10-09T12:36:59;17.20;99.90
54178;DHT22;40085;53.004;6.770;2023-10-09T12:39:28;17.40;99.90
54178;DHT22;40085;53.004;6.770;2023-10-09T12:42:00;17.20;99.90
54178;DHT22;40085;53.004;6.770;2023-10-09T12:44:35;17.00;99.90
54178;DHT22;40085;53.004;6.770;2023-10-09T12:47:08;16.90;99.90
54178;DHT22;40085;53.004;6.770;2023-10-09T12:49:37;17.30;99.90
54178;DHT22;40085;53.004;6.770;2023-10-09T12:52:10;17.30;99.90
54178;DHT22;40085;53.004;6.770;2023-10-09T12:54:44;17.30;99.90
54178;DHT22;40085;53.004;6.770;2023-10-09T12:57:13;17.40;99.90
54178;DHT22;40085;53.004;6.770;2023-10-09T12:59:40;17.60;99.90
54178;DHT22;40085;53.004;6.770;2023-10-09T13:02:12;17.90;99.90
54178;DHT22;40085;53.004;6.770;2023-10-09T13:04:37;17.10;99.90
54178;DHT22;40085;53.004;6.770;2023-10-09T13:07:06;17.20;99.90
54178;DHT22;40085;53.004;6.770;2023-10-09T13:09:33;17.40;99.90
54178;DHT22;40085;53.004;6.770;2023-10-09T13:12:08;17.50;99.90
54178;DHT22;40085;53.004;6.770;2023-10-09T13:14:35;17.50;99.90
